createdAt,value
2023-01-10T00:00:22.350Z,90
2023-01-10T00:01:08.257Z,90
2023-01-10T00:01:54.280Z,90
2023-01-10T00:02:40.314Z,90
2023-01-10T00:03:26.283Z,90
2023-01-10T00:04:12.353Z,90
2023-01-10T00:04:58.350Z,90
2023-01-10T00:05:44.291Z,90
2023-01-10T00:06:30.225Z,90
2023-01-10T00:07:16.358Z,90
2023-01-10T00:08:02.325Z,90
2023-01-10T00:08:48.230Z,90
2023-01-10T00:09:34.235Z,90
2023-01-10T00:10:20.285Z,90
2023-01-10T00:11:06.339Z,90
2023-01-10T00:11:52.288Z,90
2023-01-10T00:12:38.313Z,90
2023-01-10T00:13:24.407Z,89
2023-01-10T00:14:10.256Z,89
2023-01-10T00:14:56.303Z,89
2023-01-10T00:15:42.390Z,89
2023-01-10T00:16:28.350Z,89
2023-01-10T00:17:14.308Z,89
2023-01-10T00:18:00.290Z,89
2023-01-10T00:18:46.371Z,89
2023-01-10T00:19:32.271Z,89
2023-01-10T00:20:18.310Z,89
2023-01-10T00:21:04.265Z,89
2023-01-10T00:21:50.333Z,89
2023-01-10T00:22:36.278Z,89
2023-01-10T00:23:22.289Z,88
2023-01-10T00:24:08.338Z,88
2023-01-10T00:24:54.305Z,88
2023-01-10T00:25:40.343Z,88
2023-01-10T00:26:26.459Z,88
2023-01-10T00:27:12.300Z,88
2023-01-10T00:27:58.323Z,88
2023-01-10T00:28:44.345Z,88
2023-01-10T00:29:30.271Z,88
2023-01-10T00:30:16.499Z,87
2023-01-10T00:31:02.295Z,87
2023-01-10T00:31:48.321Z,87
2023-01-10T00:32:34.323Z,87
2023-01-10T00:33:20.329Z,87
2023-01-10T00:34:06.420Z,87
2023-01-10T00:34:52.374Z,87
2023-01-10T00:35:38.373Z,87
2023-01-10T00:36:24.341Z,87
2023-01-10T00:37:10.356Z,86
2023-01-10T00:37:56.379Z,86
2023-01-10T00:38:42.392Z,86
2023-01-10T00:39:28.387Z,86
2023-01-10T00:40:14.415Z,86
2023-01-10T00:41:00.366Z,86
2023-01-10T00:41:46.546Z,86
2023-01-10T00:42:32.454Z,86
2023-01-10T00:43:18.349Z,86
2023-01-10T00:44:04.489Z,86
2023-01-10T00:44:50.452Z,86
2023-01-10T00:45:36.513Z,86
2023-01-10T00:46:22.460Z,86
2023-01-10T00:47:08.372Z,86
2023-01-10T00:47:54.348Z,86
2023-01-10T00:48:40.355Z,86
2023-01-10T00:49:26.448Z,86
2023-01-10T00:50:12.412Z,86
2023-01-10T00:50:58.542Z,86
2023-01-10T00:51:44.399Z,86
2023-01-10T00:52:30.361Z,86
2023-01-10T00:53:16.443Z,86
2023-01-10T00:54:02.402Z,87
2023-01-10T00:54:48.335Z,87
2023-01-10T00:55:34.367Z,86
2023-01-10T00:56:20.388Z,86
2023-01-10T00:57:06.421Z,87
2023-01-10T00:57:52.412Z,87
2023-01-10T00:58:38.398Z,86
2023-01-10T00:59:24.364Z,86
2023-01-10T01:00:10.468Z,87
2023-01-10T01:00:56.451Z,87
2023-01-10T01:01:42.539Z,87
2023-01-10T01:02:28.587Z,87
2023-01-10T01:03:14.471Z,87
2023-01-10T01:04:00.432Z,87
2023-01-10T01:04:46.478Z,87
2023-01-10T01:05:32.451Z,87
2023-01-10T01:06:18.382Z,87
2023-01-10T01:07:04.396Z,87
2023-01-10T01:07:50.479Z,86
2023-01-10T01:08:36.449Z,86
2023-01-10T01:09:22.456Z,86
2023-01-10T01:10:08.413Z,87
2023-01-10T01:10:54.575Z,87
2023-01-10T01:11:40.521Z,87
2023-01-10T01:12:26.535Z,87
2023-01-10T01:13:12.582Z,87
2023-01-10T01:13:58.468Z,87
2023-01-10T01:14:44.510Z,87
2023-01-10T01:15:30.686Z,87
2023-01-10T01:16:16.609Z,87
2023-01-10T01:17:02.564Z,87
2023-01-10T01:17:48.492Z,87
2023-01-10T01:18:34.578Z,87
2023-01-10T01:19:20.623Z,87
2023-01-10T01:20:06.473Z,87
2023-01-10T01:20:52.513Z,87
2023-01-10T01:21:38.512Z,87
2023-01-10T01:22:24.687Z,87
2023-01-10T01:23:10.479Z,87
2023-01-10T01:23:56.577Z,87
2023-01-10T01:24:42.516Z,87
2023-01-10T01:25:28.467Z,87
2023-01-10T01:26:14.561Z,87
2023-01-10T01:27:00.512Z,88
2023-01-10T01:27:46.543Z,88
2023-01-10T01:28:32.576Z,88
2023-01-10T01:29:18.464Z,87
2023-01-10T01:30:04.560Z,88
2023-01-10T01:30:50.585Z,88
2023-01-10T01:31:36.577Z,88
2023-01-10T01:32:22.546Z,88
2023-01-10T01:33:08.656Z,88
2023-01-10T01:33:54.498Z,88
2023-01-10T01:34:40.593Z,88
2023-01-10T01:35:26.610Z,88
2023-01-10T01:36:12.565Z,87
2023-01-10T01:36:58.578Z,87
2023-01-10T01:37:44.558Z,87
2023-01-10T01:38:30.489Z,87
2023-01-10T01:39:16.569Z,87
2023-01-10T01:40:02.486Z,87
2023-01-10T01:40:48.504Z,87
2023-01-10T01:41:34.533Z,87
2023-01-10T01:42:20.544Z,87
2023-01-10T01:43:06.518Z,87
2023-01-10T01:43:52.546Z,87
2023-01-10T01:44:38.589Z,87
2023-01-10T01:45:24.565Z,87
2023-01-10T01:46:10.573Z,87
2023-01-10T01:46:56.597Z,87
2023-01-10T01:47:42.586Z,87
2023-01-10T01:48:28.526Z,87
2023-01-10T01:49:14.706Z,87
2023-01-10T01:50:00.753Z,87
2023-01-10T01:50:46.553Z,87
2023-01-10T01:51:32.589Z,87
2023-01-10T01:52:18.515Z,87
2023-01-10T01:53:04.556Z,87
2023-01-10T01:53:50.558Z,87
2023-01-10T01:54:36.704Z,87
2023-01-10T01:55:22.543Z,87
2023-01-10T01:56:08.567Z,87
2023-01-10T01:56:54.596Z,87
2023-01-10T01:57:40.625Z,87
2023-01-10T01:58:26.569Z,87
2023-01-10T01:59:12.581Z,87
2023-01-10T01:59:58.510Z,87
2023-01-10T02:00:44.661Z,87
2023-01-10T02:01:30.718Z,87
2023-01-10T02:02:16.619Z,87
2023-01-10T02:03:03.410Z,87
2023-01-10T02:03:48.565Z,87
2023-01-10T02:04:34.608Z,87
2023-01-10T02:05:20.612Z,87
2023-01-10T02:06:06.621Z,87
2023-01-10T02:06:52.604Z,87
2023-01-10T02:07:38.650Z,87
2023-01-10T02:08:24.557Z,86
2023-01-10T02:09:10.580Z,86
2023-01-10T02:09:56.662Z,86
2023-01-10T02:10:42.605Z,86
2023-01-10T02:11:28.563Z,86
2023-01-10T02:12:14.628Z,86
2023-01-10T02:13:00.580Z,86
2023-01-10T02:13:46.618Z,86
2023-01-10T02:14:32.648Z,86
2023-01-10T02:15:18.667Z,86
2023-01-10T02:16:04.695Z,86
2023-01-10T02:16:50.707Z,85
2023-01-10T02:17:36.677Z,85
2023-01-10T02:18:22.659Z,85
2023-01-10T02:19:08.697Z,85
2023-01-10T02:19:54.589Z,85
2023-01-10T02:20:40.723Z,85
2023-01-10T02:21:26.635Z,85
2023-01-10T02:22:12.709Z,85
2023-01-10T02:22:58.570Z,85
2023-01-10T02:23:44.645Z,85
2023-01-10T02:24:30.672Z,85
2023-01-10T02:25:16.693Z,85
2023-01-10T02:26:02.669Z,85
2023-01-10T02:26:48.618Z,85
2023-01-10T02:27:34.566Z,85
2023-01-10T02:28:20.689Z,85
2023-01-10T02:29:06.635Z,85
2023-01-10T02:29:52.625Z,85
2023-01-10T02:30:38.778Z,85
2023-01-10T02:31:24.805Z,85
2023-01-10T02:32:10.640Z,85
2023-01-10T02:33:04.536Z,85
2023-01-10T02:33:42.616Z,85
2023-01-10T02:34:28.655Z,85
2023-01-10T02:35:14.670Z,85
2023-01-10T02:36:00.731Z,85
2023-01-10T02:36:46.645Z,85
2023-01-10T02:37:32.699Z,85
2023-01-10T02:38:18.609Z,85
2023-01-10T02:39:04.674Z,85
2023-01-10T02:39:50.819Z,85
2023-01-10T02:40:36.669Z,85
2023-01-10T02:41:22.712Z,85
2023-01-10T02:42:08.672Z,85
2023-01-10T02:42:54.720Z,85
2023-01-10T02:43:41.056Z,85
2023-01-10T02:44:26.723Z,85
2023-01-10T02:45:12.803Z,85
2023-01-10T02:45:58.723Z,85
2023-01-10T02:46:44.763Z,85
2023-01-10T02:47:30.674Z,85
2023-01-10T02:48:16.727Z,85
2023-01-10T02:49:02.700Z,85
2023-01-10T02:49:48.704Z,85
2023-01-10T02:50:34.683Z,85
2023-01-10T02:51:20.723Z,85
2023-01-10T02:52:06.719Z,85
2023-01-10T02:52:52.794Z,85
2023-01-10T02:53:38.743Z,85
2023-01-10T02:54:24.800Z,85
2023-01-10T02:55:10.730Z,84
2023-01-10T02:55:56.790Z,84
2023-01-10T02:56:42.805Z,84
2023-01-10T02:57:28.718Z,84
2023-01-10T02:58:14.709Z,84
2023-01-10T02:59:00.717Z,84
2023-01-10T02:59:46.689Z,84
2023-01-10T03:00:32.849Z,84
2023-01-10T03:01:18.946Z,84
2023-01-10T03:02:04.853Z,84
2023-01-10T03:02:50.796Z,84
2023-01-10T03:03:36.766Z,84
2023-01-10T03:04:22.813Z,84
2023-01-10T03:05:08.879Z,84
2023-01-10T03:05:54.751Z,84
2023-01-10T03:06:40.862Z,84
2023-01-10T03:07:26.749Z,84
2023-01-10T03:08:12.895Z,84
2023-01-10T03:08:58.762Z,84
2023-01-10T03:09:44.857Z,85
2023-01-10T03:10:30.743Z,85
2023-01-10T03:11:16.761Z,85
2023-01-10T03:12:02.746Z,84
2023-01-10T03:12:48.753Z,85
2023-01-10T03:13:34.748Z,85
2023-01-10T03:14:20.811Z,85
2023-01-10T03:15:06.862Z,85
2023-01-10T03:15:52.922Z,85
2023-01-10T03:16:38.828Z,85
2023-01-10T03:17:24.736Z,85
2023-01-10T03:18:10.790Z,85
2023-01-10T03:18:56.800Z,85
2023-01-10T03:19:42.784Z,85
2023-01-10T03:20:28.839Z,85
2023-01-10T03:21:14.833Z,85
2023-01-10T03:22:00.787Z,85
2023-01-10T03:22:46.799Z,85
2023-01-10T03:23:32.808Z,85
2023-01-10T03:24:18.841Z,85
2023-01-10T03:25:04.911Z,85
2023-01-10T03:25:50.913Z,86
2023-01-10T03:26:36.953Z,86
2023-01-10T03:27:22.824Z,86
2023-01-10T03:28:08.931Z,86
2023-01-10T03:28:54.819Z,86
2023-01-10T03:29:40.929Z,86
2023-01-10T03:30:26.981Z,86
2023-01-10T03:31:12.948Z,86
2023-01-10T03:31:58.808Z,86
2023-01-10T03:32:44.839Z,86
2023-01-10T03:33:30.771Z,86
2023-01-10T03:34:16.885Z,86
2023-01-10T03:35:02.921Z,86
2023-01-10T03:35:48.800Z,85
2023-01-10T03:36:34.814Z,85
2023-01-10T03:37:20.966Z,86
2023-01-10T03:38:06.993Z,86
2023-01-10T03:38:52.850Z,85
2023-01-10T03:39:38.949Z,85
2023-01-10T03:40:24.822Z,86
2023-01-10T03:41:10.907Z,85
2023-01-10T03:41:56.877Z,85
2023-01-10T03:42:42.872Z,85
2023-01-10T03:43:28.845Z,85
2023-01-10T03:44:14.931Z,85
2023-01-10T03:45:01.275Z,85
2023-01-10T03:45:46.857Z,85
2023-01-10T03:46:32.975Z,85
2023-01-10T03:47:18.871Z,85
2023-01-10T03:48:04.922Z,85
2023-01-10T03:48:50.963Z,85
2023-01-10T03:49:36.866Z,85
2023-01-10T03:50:22.907Z,85
2023-01-10T03:51:08.908Z,85
2023-01-10T03:51:54.879Z,85
2023-01-10T03:52:40.958Z,85
2023-01-10T03:53:26.840Z,85
2023-01-10T03:54:12.865Z,85
2023-01-10T03:54:58.818Z,85
2023-01-10T03:55:44.866Z,85
2023-01-10T03:56:30.892Z,85
2023-01-10T03:57:16.867Z,85
2023-01-10T03:58:02.881Z,85
2023-01-10T03:58:48.857Z,86
2023-01-10T03:59:34.847Z,86
2023-01-10T04:00:20.988Z,86
2023-01-10T04:01:06.980Z,86
2023-01-10T04:01:53.095Z,86
2023-01-10T04:02:38.917Z,86
2023-01-10T04:03:24.868Z,86
2023-01-10T04:04:10.931Z,86
2023-01-10T04:04:56.855Z,86
2023-01-10T04:05:42.934Z,86
2023-01-10T04:06:28.854Z,86
2023-01-10T04:07:14.920Z,86
2023-01-10T04:08:01.039Z,86
2023-01-10T04:08:46.858Z,86
2023-01-10T04:09:32.895Z,86
2023-01-10T04:10:18.852Z,86
2023-01-10T04:11:04.852Z,86
2023-01-10T04:11:51.016Z,86
2023-01-10T04:12:37.013Z,86
2023-01-10T04:13:22.972Z,86
2023-01-10T04:14:08.960Z,86
2023-01-10T04:14:54.885Z,86
2023-01-10T04:15:40.959Z,86
2023-01-10T04:16:26.896Z,86
2023-01-10T04:17:12.916Z,86
2023-01-10T04:17:58.905Z,86
2023-01-10T04:18:44.991Z,86
2023-01-10T04:19:30.937Z,86
2023-01-10T04:20:16.925Z,86
2023-01-10T04:21:02.965Z,86
2023-01-10T04:21:48.893Z,86
2023-01-10T04:22:34.901Z,86
2023-01-10T04:23:20.971Z,86
2023-01-10T04:24:07.073Z,86
2023-01-10T04:24:52.945Z,86
2023-01-10T04:25:38.966Z,86
2023-01-10T04:26:24.893Z,86
2023-01-10T04:27:11.021Z,86
2023-01-10T04:27:56.920Z,86
2023-01-10T04:28:42.960Z,86
2023-01-10T04:29:28.897Z,87
2023-01-10T04:30:15.085Z,87
2023-01-10T04:31:00.914Z,87
2023-01-10T04:31:46.962Z,87
2023-01-10T04:32:32.920Z,87
2023-01-10T04:33:18.915Z,87
2023-01-10T04:34:04.954Z,87
2023-01-10T04:34:50.923Z,87
2023-01-10T04:35:36.967Z,87
2023-01-10T04:36:22.994Z,87
2023-01-10T04:37:09.011Z,87
2023-01-10T04:37:54.932Z,87
2023-01-10T04:38:41.241Z,87
2023-01-10T04:39:26.929Z,87
2023-01-10T04:40:13.004Z,87
2023-01-10T04:40:58.974Z,87
2023-01-10T04:41:44.997Z,87
2023-01-10T04:42:30.966Z,87
2023-01-10T04:43:16.956Z,87
2023-01-10T04:44:02.974Z,87
2023-01-10T04:44:48.933Z,87
2023-01-10T04:45:35.203Z,87
2023-01-10T04:46:20.996Z,87
2023-01-10T04:47:07.030Z,88
2023-01-10T04:47:52.980Z,88
2023-01-10T04:48:39.092Z,88
2023-01-10T04:49:24.945Z,88
2023-01-10T04:50:11.036Z,88
2023-01-10T04:50:57.020Z,88
2023-01-10T04:51:43.038Z,88
2023-01-10T04:52:28.966Z,88
2023-01-10T04:53:15.013Z,88
2023-01-10T04:54:01.022Z,88
2023-01-10T04:54:46.992Z,88
2023-01-10T04:55:33.027Z,88
2023-01-10T04:56:19.077Z,88
2023-01-10T04:57:05.064Z,88
2023-01-10T04:57:51.061Z,88
2023-01-10T04:58:37.038Z,88
2023-01-10T04:59:23.598Z,88
2023-01-10T05:00:09.117Z,88
2023-01-10T05:00:55.028Z,88
2023-01-10T05:01:41.028Z,88
2023-01-10T05:02:27.093Z,88
2023-01-10T05:03:13.166Z,88
2023-01-10T05:03:59.044Z,88
2023-01-10T05:04:45.079Z,88
2023-01-10T05:05:30.981Z,88
2023-01-10T05:06:16.999Z,88
2023-01-10T05:07:03.095Z,88
2023-01-10T05:07:49.026Z,88
2023-01-10T05:08:35.093Z,89
2023-01-10T05:09:21.124Z,89
2023-01-10T05:10:06.998Z,89
2023-01-10T05:10:53.030Z,89
2023-01-10T05:11:39.062Z,89
2023-01-10T05:12:25.062Z,89
2023-01-10T05:13:11.025Z,89
2023-01-10T05:13:56.998Z,89
2023-01-10T05:14:43.037Z,89
2023-01-10T05:15:29.102Z,89
2023-01-10T05:16:15.146Z,89
2023-01-10T05:17:01.065Z,89
2023-01-10T05:17:47.032Z,89
2023-01-10T05:18:33.039Z,89
2023-01-10T05:19:19.041Z,89
2023-01-10T05:20:05.089Z,89
2023-01-10T05:20:51.067Z,89
2023-01-10T05:21:37.110Z,89
2023-01-10T05:22:23.759Z,89
2023-01-10T05:23:09.137Z,89
2023-01-10T05:23:55.034Z,89
2023-01-10T05:24:41.052Z,88
2023-01-10T05:25:27.050Z,88
2023-01-10T05:26:13.061Z,88
2023-01-10T05:26:59.098Z,88
2023-01-10T05:27:45.130Z,88
2023-01-10T05:28:31.103Z,88
2023-01-10T05:29:17.071Z,88
2023-01-10T05:30:03.212Z,88
2023-01-10T05:30:49.091Z,88
2023-01-10T05:31:35.227Z,88
2023-01-10T05:32:21.127Z,88
2023-01-10T05:33:07.246Z,88
2023-01-10T05:33:53.076Z,88
2023-01-10T05:34:39.134Z,88
2023-01-10T05:35:25.094Z,88
2023-01-10T05:36:11.076Z,88
2023-01-10T05:36:56.395Z,88
2023-01-10T05:37:43.098Z,88
2023-01-10T05:38:29.099Z,88
2023-01-10T05:39:15.178Z,88
2023-01-10T05:40:01.089Z,88
2023-01-10T05:40:47.115Z,87
2023-01-10T05:41:33.101Z,87
2023-01-10T05:42:19.121Z,87
2023-01-10T05:43:05.097Z,87
2023-01-10T05:43:51.171Z,87
2023-01-10T05:44:37.184Z,87
2023-01-10T05:45:23.851Z,87
2023-01-10T05:46:09.275Z,87
2023-01-10T05:46:55.119Z,87
2023-01-10T05:47:41.174Z,87
2023-01-10T05:48:27.101Z,87
2023-01-10T05:49:13.145Z,88
2023-01-10T05:49:59.141Z,88
2023-01-10T05:50:45.156Z,88
2023-01-10T05:51:31.127Z,88
2023-01-10T05:52:17.154Z,88
2023-01-10T05:53:03.148Z,88
2023-01-10T05:53:50.284Z,88
2023-01-10T05:54:35.154Z,88
2023-01-10T05:55:21.192Z,87
2023-01-10T05:56:07.167Z,87
2023-01-10T05:56:53.126Z,87
2023-01-10T05:57:39.181Z,87
2023-01-10T05:58:25.151Z,87
2023-01-10T05:59:23.738Z,87
2023-01-10T05:59:57.194Z,87
2023-01-10T06:00:43.274Z,87
2023-01-10T06:01:29.222Z,87
2023-01-10T06:02:15.323Z,87
2023-01-10T06:03:01.663Z,87
2023-01-10T06:03:47.208Z,87
2023-01-10T06:04:33.168Z,87
2023-01-10T06:05:19.210Z,87
2023-01-10T06:06:05.192Z,87
2023-01-10T06:06:51.220Z,87
2023-01-10T06:07:37.186Z,87
2023-01-10T06:08:23.757Z,87
2023-01-10T06:09:09.271Z,87
2023-01-10T06:09:55.196Z,87
2023-01-10T06:10:42.248Z,87
2023-01-10T06:11:27.182Z,87
2023-01-10T06:12:13.170Z,87
2023-01-10T06:12:59.204Z,87
2023-01-10T06:13:45.242Z,87
2023-01-10T06:14:31.205Z,87
2023-01-10T06:15:17.341Z,87
2023-01-10T06:16:03.308Z,87
2023-01-10T06:16:49.255Z,87
2023-01-10T06:17:35.222Z,87
2023-01-10T06:18:21.280Z,87
2023-01-10T06:19:07.261Z,87
2023-01-10T06:19:53.236Z,87
2023-01-10T06:20:39.281Z,87
2023-01-10T06:21:25.209Z,87
2023-01-10T06:22:11.279Z,87
2023-01-10T06:22:57.248Z,87
2023-01-10T06:23:43.211Z,87
2023-01-10T06:24:29.261Z,87
2023-01-10T06:25:15.295Z,86
2023-01-10T06:26:01.228Z,86
2023-01-10T06:26:47.213Z,86
2023-01-10T06:27:33.275Z,86
2023-01-10T06:28:19.322Z,86
2023-01-10T06:29:05.275Z,86
2023-01-10T06:29:51.286Z,86
2023-01-10T06:30:37.494Z,86
2023-01-10T06:31:23.908Z,86
2023-01-10T06:32:09.277Z,86
2023-01-10T06:32:55.313Z,86
2023-01-10T06:33:41.514Z,86
2023-01-10T06:34:27.223Z,86
2023-01-10T06:35:13.231Z,86
2023-01-10T06:35:59.250Z,86
2023-01-10T06:36:45.458Z,85
2023-01-10T06:37:31.270Z,85
2023-01-10T06:38:17.286Z,85
2023-01-10T06:39:03.292Z,85
2023-01-10T06:39:49.331Z,85
2023-01-10T06:40:35.322Z,85
2023-01-10T06:41:21.349Z,85
2023-01-10T06:42:07.331Z,85
2023-01-10T06:42:53.326Z,85
2023-01-10T06:43:39.340Z,85
2023-01-10T06:44:25.349Z,85
2023-01-10T06:45:11.450Z,85
2023-01-10T06:45:57.349Z,85
2023-01-10T06:46:43.273Z,85
2023-01-10T06:47:29.275Z,85
2023-01-10T06:48:15.349Z,85
2023-01-10T06:49:01.350Z,85
2023-01-10T06:49:47.360Z,85
2023-01-10T06:50:33.290Z,85
2023-01-10T06:51:20.382Z,85
2023-01-10T06:52:05.305Z,85
2023-01-10T06:52:51.379Z,85
2023-01-10T06:53:37.324Z,85
2023-01-10T06:54:23.894Z,85
2023-01-10T06:55:09.406Z,85
2023-01-10T06:55:55.364Z,85
2023-01-10T06:56:41.382Z,85
2023-01-10T06:57:27.362Z,85
2023-01-10T06:58:13.324Z,85
2023-01-10T06:58:59.381Z,85
2023-01-10T06:59:45.364Z,85
2023-01-10T07:00:31.464Z,85
2023-01-10T07:01:17.502Z,85
2023-01-10T07:02:03.506Z,85
2023-01-10T07:02:49.369Z,85
2023-01-10T07:03:35.415Z,85
2023-01-10T07:04:21.335Z,85
2023-01-10T07:05:09.367Z,85
2023-01-10T07:05:53.382Z,85
2023-01-10T07:06:39.421Z,85
2023-01-10T07:07:25.330Z,85
2023-01-10T07:08:11.383Z,85
2023-01-10T07:08:57.364Z,85
2023-01-10T07:09:43.385Z,85
2023-01-10T07:10:29.479Z,85
2023-01-10T07:11:15.473Z,85
2023-01-10T07:12:01.348Z,85
2023-01-10T07:12:47.366Z,85
2023-01-10T07:13:33.355Z,85
2023-01-10T07:14:19.460Z,85
2023-01-10T07:15:05.445Z,85
2023-01-10T07:15:51.449Z,85
2023-01-10T07:16:37.416Z,85
2023-01-10T07:17:23.891Z,85
2023-01-10T07:18:11.890Z,85
2023-01-10T07:18:55.411Z,85
2023-01-10T07:19:41.421Z,85
2023-01-10T07:20:27.373Z,85
2023-01-10T07:21:13.397Z,85
2023-01-10T07:21:59.383Z,85
2023-01-10T07:22:45.620Z,85
2023-01-10T07:23:31.378Z,85
2023-01-10T07:24:17.385Z,84
2023-01-10T07:25:03.400Z,84
2023-01-10T07:25:49.432Z,84
2023-01-10T07:26:35.470Z,84
2023-01-10T07:27:21.387Z,84
2023-01-10T07:28:07.396Z,84
2023-01-10T07:28:53.456Z,84
2023-01-10T07:29:39.473Z,84
2023-01-10T07:30:25.741Z,84
2023-01-10T07:31:11.559Z,84
2023-01-10T07:31:57.387Z,84
2023-01-10T07:32:43.401Z,84
2023-01-10T07:33:29.369Z,84
2023-01-10T07:34:15.557Z,84
2023-01-10T07:35:01.472Z,84
2023-01-10T07:35:47.510Z,84
2023-01-10T07:36:33.458Z,84
2023-01-10T07:37:19.508Z,84
2023-01-10T07:38:05.527Z,84
2023-01-10T07:38:51.546Z,83
2023-01-10T07:39:37.487Z,83
2023-01-10T07:40:24.005Z,83
2023-01-10T07:41:09.567Z,83
2023-01-10T07:41:55.535Z,83
2023-01-10T07:42:41.529Z,83
2023-01-10T07:43:27.497Z,83
2023-01-10T07:44:13.484Z,83
2023-01-10T07:44:59.492Z,83
2023-01-10T07:45:45.657Z,83
2023-01-10T07:46:31.553Z,83
2023-01-10T07:47:17.490Z,83
2023-01-10T07:48:03.561Z,83
2023-01-10T07:48:49.575Z,83
2023-01-10T07:49:35.563Z,83
2023-01-10T07:50:21.556Z,83
2023-01-10T07:51:07.567Z,83
2023-01-10T07:51:53.589Z,83
2023-01-10T07:52:39.575Z,83
2023-01-10T07:53:25.558Z,83
2023-01-10T07:54:13.605Z,83
2023-01-10T07:54:57.497Z,83
2023-01-10T07:55:43.529Z,83
2023-01-10T07:56:29.563Z,83
2023-01-10T07:57:15.643Z,83
2023-01-10T07:58:01.543Z,83
2023-01-10T07:58:47.510Z,83
2023-01-10T07:59:33.558Z,83
2023-01-10T08:00:19.662Z,83
2023-01-10T08:01:05.603Z,83
2023-01-10T08:01:51.542Z,83
2023-01-10T08:02:37.715Z,82
2023-01-10T08:03:24.171Z,83
2023-01-10T08:04:09.614Z,82
2023-01-10T08:04:55.569Z,82
2023-01-10T08:05:41.778Z,82
2023-01-10T08:06:27.586Z,82
2023-01-10T08:07:13.547Z,82
2023-01-10T08:07:59.573Z,82
2023-01-10T08:08:45.620Z,82
2023-01-10T08:09:31.557Z,82
2023-01-10T08:10:17.594Z,82
2023-01-10T08:11:03.569Z,82
2023-01-10T08:11:49.657Z,82
2023-01-10T08:12:35.612Z,82
2023-01-10T08:13:21.581Z,82
2023-01-10T08:14:07.651Z,82
2023-01-10T08:14:53.615Z,82
2023-01-10T08:15:39.742Z,82
2023-01-10T08:16:25.702Z,82
2023-01-10T08:17:11.737Z,81
2023-01-10T08:17:57.642Z,81
2023-01-10T08:18:43.569Z,81
2023-01-10T08:19:29.572Z,81
2023-01-10T08:20:15.662Z,81
2023-01-10T08:21:01.676Z,82
2023-01-10T08:21:47.578Z,82
2023-01-10T08:22:33.584Z,81
2023-01-10T08:23:19.666Z,81
2023-01-10T08:24:05.645Z,81
2023-01-10T08:24:51.610Z,81
2023-01-10T08:25:39.458Z,81
2023-01-10T08:26:24.260Z,81
2023-01-10T08:27:09.709Z,81
2023-01-10T08:27:54.841Z,81
2023-01-10T08:28:41.832Z,81
2023-01-10T08:29:27.614Z,81
2023-01-10T08:30:13.704Z,81
2023-01-10T08:30:59.997Z,81
2023-01-10T08:31:45.721Z,82
2023-01-10T08:32:31.618Z,81
2023-01-10T08:33:17.635Z,81
2023-01-10T08:34:03.721Z,81
2023-01-10T08:34:49.654Z,81
2023-01-10T08:35:35.625Z,81
2023-01-10T08:36:21.659Z,81
2023-01-10T08:37:07.677Z,81
2023-01-10T08:37:53.632Z,81
2023-01-10T08:38:39.758Z,81
2023-01-10T08:39:25.632Z,81
2023-01-10T08:40:11.723Z,81
2023-01-10T08:40:57.679Z,81
2023-01-10T08:41:43.700Z,81
2023-01-10T08:42:29.650Z,81
2023-01-10T08:43:15.739Z,81
2023-01-10T08:44:01.760Z,81
2023-01-10T08:44:47.649Z,81
2023-01-10T08:45:33.734Z,81
2023-01-10T08:46:19.830Z,80
2023-01-10T08:47:05.680Z,80
2023-01-10T08:47:51.710Z,80
2023-01-10T08:48:37.670Z,81
2023-01-10T08:49:24.115Z,81
2023-01-10T08:50:09.727Z,81
2023-01-10T08:50:55.717Z,81
2023-01-10T08:51:41.815Z,80
2023-01-10T08:52:27.709Z,80
2023-01-10T08:53:13.796Z,80
2023-01-10T08:53:59.711Z,80
2023-01-10T08:54:45.761Z,80
2023-01-10T08:55:31.708Z,80
2023-01-10T08:56:17.689Z,80
2023-01-10T08:57:03.697Z,80
2023-01-10T08:57:49.724Z,80
2023-01-10T08:58:35.692Z,80
2023-01-10T08:59:21.688Z,80
2023-01-10T09:00:07.844Z,80
2023-01-10T09:00:53.807Z,80
2023-01-10T09:01:39.900Z,80
2023-01-10T09:02:25.785Z,80
2023-01-10T09:03:11.822Z,80
2023-01-10T09:03:57.744Z,80
2023-01-10T09:04:43.753Z,80
2023-01-10T09:05:29.833Z,80
2023-01-10T09:06:15.799Z,80
2023-01-10T09:07:04.553Z,80
2023-01-10T09:07:47.718Z,80
2023-01-10T09:08:33.743Z,80
2023-01-10T09:09:19.823Z,80
2023-01-10T09:10:05.722Z,80
2023-01-10T09:10:51.765Z,80
2023-01-10T09:11:37.806Z,80
2023-01-10T09:12:24.237Z,80
2023-01-10T09:13:09.810Z,80
2023-01-10T09:13:55.771Z,80
2023-01-10T09:14:41.836Z,80
2023-01-10T09:15:27.924Z,80
2023-01-10T09:16:13.778Z,80
2023-01-10T09:16:59.786Z,80
2023-01-10T09:17:45.907Z,80
2023-01-10T09:18:31.769Z,80
2023-01-10T09:19:17.746Z,80
2023-01-10T09:20:04.688Z,80
2023-01-10T09:20:49.837Z,80
2023-01-10T09:21:35.777Z,80
2023-01-10T09:22:21.766Z,80
2023-01-10T09:23:07.769Z,80
2023-01-10T09:23:53.833Z,80
2023-01-10T09:24:39.873Z,80
2023-01-10T09:25:25.849Z,80
2023-01-10T09:26:11.901Z,80
2023-01-10T09:26:57.826Z,80
2023-01-10T09:27:43.809Z,80
2023-01-10T09:28:29.803Z,79
2023-01-10T09:29:15.872Z,80
2023-01-10T09:30:02.275Z,80
2023-01-10T09:30:47.839Z,80
2023-01-10T09:31:33.912Z,79
2023-01-10T09:32:19.824Z,79
2023-01-10T09:33:05.925Z,79
2023-01-10T09:33:51.855Z,79
2023-01-10T09:34:37.792Z,79
2023-01-10T09:35:24.136Z,80
2023-01-10T09:36:10.349Z,79
2023-01-10T09:36:55.834Z,79
2023-01-10T09:37:41.944Z,79
2023-01-10T09:38:27.810Z,79
2023-01-10T09:39:13.821Z,79
2023-01-10T09:39:59.848Z,79
2023-01-10T09:40:45.879Z,79
2023-01-10T09:41:31.831Z,79
2023-01-10T09:42:17.842Z,79
2023-01-10T09:43:03.802Z,79
2023-01-10T09:43:49.890Z,79
2023-01-10T09:44:35.901Z,79
2023-01-10T09:45:21.977Z,79
2023-01-10T09:46:07.885Z,79
2023-01-10T09:46:54.049Z,79
2023-01-10T09:47:39.921Z,79
2023-01-10T09:48:25.894Z,79
2023-01-10T09:49:11.965Z,79
2023-01-10T09:49:57.827Z,79
2023-01-10T09:50:43.885Z,79
2023-01-10T09:51:29.895Z,80
2023-01-10T09:52:15.933Z,80
2023-01-10T09:53:01.881Z,80
2023-01-10T09:53:47.917Z,80
2023-01-10T09:54:33.836Z,80
2023-01-10T09:55:19.890Z,80
2023-01-10T09:56:05.938Z,79
2023-01-10T09:56:51.894Z,79
2023-01-10T09:57:37.899Z,79
2023-01-10T09:58:24.569Z,79
2023-01-10T09:59:09.910Z,79
2023-01-10T09:59:55.943Z,79
2023-01-10T10:00:42.017Z,79
2023-01-10T10:01:27.895Z,79
2023-01-10T10:02:13.860Z,79
2023-01-10T10:02:59.922Z,79
2023-01-10T10:03:46.015Z,79
2023-01-10T10:04:32.103Z,79
2023-01-10T10:05:17.903Z,80
2023-01-10T10:06:12.012Z,80
2023-01-10T10:06:49.940Z,80
2023-01-10T10:07:35.937Z,80
2023-01-10T10:08:21.889Z,80
2023-01-10T10:09:07.949Z,80
2023-01-10T10:09:53.911Z,80
2023-01-10T10:10:40.039Z,80
2023-01-10T10:11:25.937Z,80
2023-01-10T10:12:12.043Z,80
2023-01-10T10:12:57.944Z,79
2023-01-10T10:13:43.982Z,79
2023-01-10T10:14:29.917Z,79
2023-01-10T10:15:16.023Z,79
2023-01-10T10:16:01.993Z,79
2023-01-10T10:16:47.919Z,79
2023-01-10T10:17:33.964Z,79
2023-01-10T10:18:19.933Z,79
2023-01-10T10:19:05.923Z,79
2023-01-10T10:19:51.933Z,79
2023-01-10T10:20:37.964Z,79
2023-01-10T10:21:24.329Z,79
2023-01-10T10:22:10.011Z,78
2023-01-10T10:22:56.011Z,78
2023-01-10T10:23:42.070Z,78
2023-01-10T10:24:27.951Z,78
2023-01-10T10:25:13.963Z,78
2023-01-10T10:25:59.940Z,78
2023-01-10T10:26:45.956Z,78
2023-01-10T10:27:31.939Z,78
2023-01-10T10:28:17.995Z,78
2023-01-10T10:29:04.034Z,78
2023-01-10T10:29:49.921Z,78
2023-01-10T10:30:36.037Z,79
2023-01-10T10:31:22.049Z,78
2023-01-10T10:32:07.945Z,77
2023-01-10T10:32:53.981Z,77
2023-01-10T10:33:40.071Z,77
2023-01-10T10:34:26.083Z,76
2023-01-10T10:35:12.087Z,76
2023-01-10T10:35:57.986Z,76
2023-01-10T10:36:44.009Z,76
2023-01-10T10:37:29.981Z,76
2023-01-10T10:38:16.036Z,76
2023-01-10T10:39:01.980Z,77
2023-01-10T10:39:47.993Z,77
2023-01-10T10:40:34.026Z,76
2023-01-10T10:41:20.057Z,76
2023-01-10T10:42:05.988Z,77
2023-01-10T10:42:51.993Z,77
2023-01-10T10:43:37.969Z,77
2023-01-10T10:44:24.458Z,77
2023-01-10T10:45:10.122Z,77
2023-01-10T10:45:56.115Z,77
2023-01-10T10:46:42.043Z,77
2023-01-10T10:47:28.031Z,77
2023-01-10T10:48:14.014Z,77
2023-01-10T10:48:59.968Z,77
2023-01-10T10:49:46.032Z,78
2023-01-10T10:50:32.004Z,78
2023-01-10T10:51:17.979Z,78
2023-01-10T10:52:04.015Z,78
2023-01-10T10:52:50.092Z,78
2023-01-10T10:53:36.000Z,78
2023-01-10T10:54:22.000Z,78
2023-01-10T10:55:07.976Z,78
2023-01-10T10:55:53.985Z,78